MDT,Max TemperatureF,Mean TemperatureF,Min TemperatureF,Max Dew PointF,MeanDew PointF,Min DewpointF,Max Humidity, Mean Humidity, Min Humidity, Max Sea Level PressureIn, Mean Sea Level PressureIn, Min Sea Level PressureIn, Max VisibilityMiles, Mean VisibilityMiles, Min VisibilityMiles, Max Wind SpeedMPH, Mean Wind SpeedMPH, Max Gust SpeedMPH,PrecipitationIn, CloudCover, Events, WindDirDegrees
2013-3-1,47,34,21,34,27,20,96,77,58,30.31,30.20,30.06,10,10,10,17,8,20,0.00,2,,145
2013-3-2,51,41,31,37,33,29,96,76,56,30.12,30.03,29.83,10,10,10,15,5,17,0.00,0,,97
2013-3-3,41,34,26,36,29,23,100,77,54,29.81,29.68,29.56,10,6,2,26,9,39,0.03,7,Rain-Snow,19
2013-3-4,26,16,6,23,14,4,92,77,62,30.52,30.09,29.67,10,5,0,30,21,44,0.19,6,Fog-Snow,350
2013-3-5,19,10,0,11,5,-3,91,82,73,30.54,30.44,30.18,10,10,9,15,8,17,0.00,0,,105
2013-3-6,25,18,10,21,14,7,92,83,73,30.29,30.09,29.92,10,10,10,26,18,30,0.00,3,,106
2013-3-7,33,24,14,24,17,9,91,79,66,30.26,30.01,29.86,10,7,0,22,9,26,0.06,5,Fog-Snow,282
2013-3-8,25,18,11,21,15,7,88,78,68,30.25,30.12,29.95,10,9,5,18,9,21,0.00,5,,100
2013-3-9,33,24,14,23,19,11,96,79,61,30.36,30.10,29.91,10,5,0,21,9,24,0.00,5,Fog,307
2013-3-10,36,24,11,28,20,8,92,78,63,30.34,30.17,29.92,8,5,2,15,7,17,0.00,1,,120
2013-3-11,36,27,18,27,20,15,92,72,52,30.36,30.14,29.92,10,10,6,37,18,48,T,4,,315
2013-3-12,36,24,11,24,17,9,92,72,52,30.44,30.31,30.09,10,10,10,24,11,30,T,2,,154
2013-3-13,61,45,28,40,31,23,89,67,44,30.07,30.01,29.93,10,10,10,18,10,25,0.00,1,,165
2013-3-14,56,42,28,39,31,24,92,73,54,30.16,30.08,29.95,10,10,8,23,9,26,0.00,3,,90
2013-3-15,35,27,19,28,24,12,100,84,68,30.27,30.01,29.87,10,6,0,24,12,28,0.00,7,Fog,24
2013-3-16,20,17,13,14,11,8,88,81,73,30.27,30.12,29.94,10,4,1,28,14,31,0.04,8,Snow,74
2013-3-17,27,16,4,23,14,-3,92,81,69,30.06,29.67,29.45,10,4,0,39,21,47,0.48,7,Fog-Snow,343
2013-3-18,21,7,-7,12,2,-9,91,76,61,30.14,30.07,29.91,10,10,10,21,9,25,0.00,1,,112
2013-3-19,22,11,-1,10,2,-6,88,70,52,30.49,30.40,30.12,10,10,10,21,9,24,0.00,0,,340
2013-3-20,37,23,8,25,14,1,80,70,59,30.38,30.00,29.72,10,10,10,36,22,41,0.00,2,,106
2013-3-21,29,26,23,25,21,17,92,80,68,29.95,29.77,29.68,10,5,0,28,14,35,0.12,8,Fog-Snow,105
2013-3-22,26,21,16,25,16,10,92,77,62,30.25,30.01,29.84,10,6,1,26,17,32,0.04,8,Snow,341
2013-3-23,20,13,6,13,10,5,88,78,67,30.44,30.28,30.13,10,6,0,21,12,25,0.02,7,Fog-Snow,314
2013-3-24,20,11,1,9,4,-3,88,75,62,30.52,30.48,30.30,10,9,3,14,8,15,T,3,Snow,332
2013-3-25,26,13,0,19,8,-4,95,84,73,30.49,30.36,30.20,10,10,10,22,14,24,0.00,0,,104
2013-3-26,34,20,6,22,13,3,92,74,56,30.17,30.14,30.11,10,10,10,17,7,20,0.00,0,,91
2013-3-27,38,24,10,25,18,7,88,71,54,30.18,30.16,30.14,10,10,10,17,8,20,0.00,0,,103
2013-3-28,44,32,20,34,25,16,92,77,62,30.22,30.17,30.08,10,9,6,17,9,20,0.00,1,,106
2013-3-29,60,46,31,43,35,27,96,74,51,30.13,30.07,30.00,10,7,2,17,7,23,0.01,4,Rain,121
2013-3-30,54,41,28,37,30,23,100,70,39,30.19,30.15,30.12,10,9,5,24,8,29,0.00,2,,326
2013-3-31,36,30,24,27,24,21,88,76,64,30.30,30.19,30.08,10,8,1,16,9,20,0.01,7,Snow,83